sensor_id;sensor_type;location;lat;lon;timestamp;P1;P4;P2;P0;N10;N4;N25;N1;N05;TS
43196;SPS30;28816;49.852;18.282;2023-09-18T00:02:11;5.550000;;5.530000;5.230000;;;;;;
43196;SPS30;28816;49.852;18.282;2023-09-18T00:07:12;5.550000;;5.570000;5.220000;;;;;;
43196;SPS30;28816;49.852;18.282;2023-09-18T00:12:14;6.130000;;6.160000;5.810000;;;;;;
43196;SPS30;28816;49.852;18.282;2023-09-18T00:17:16;6.320000;;6.410000;5.880000;;;;;;
43196;SPS30;28816;49.852;18.282;2023-09-18T00:22:19;6.520000;;6.470000;6.200000;;;;;;
43196;SPS30;28816;49.852;18.282;2023-09-18T00:27:21;5.200000;;5.140000;4.950000;;;;;;
43196;SPS30;28816;49.852;18.282;2023-09-18T00:32:23;6.050000;;6.020000;5.740000;;;;;;
43196;SPS30;28816;49.852;18.282;2023-09-18T00:37:27;5.600000;;5.610000;5.270000;;;;;;
43196;SPS30;28816;49.852;18.282;2023-09-18T00:42:29;5.560000;;5.590000;5.210000;;;;;;
43196;SPS30;28816;49.852;18.282;2023-09-18T00:47:31;5.650000;;5.650000;5.340000;;;;;;
43196;SPS30;28816;49.852;18.282;2023-09-18T00:52:33;6.340000;;6.350000;5.990000;;;;;;
43196;SPS30;28816;49.852;18.282;2023-09-18T00:57:35;5.370000;;5.370000;5.050000;;;;;;
43196;SPS30;28816;49.852;18.282;2023-09-18T01:02:37;5.740000;;5.720000;5.410000;;;;;;
43196;SPS30;28816;49.852;18.282;2023-09-18T01:07:40;5.820000;;5.770000;5.530000;;;;;;
43196;SPS30;28816;49.852;18.282;2023-09-18T01:12:42;5.400000;;5.430000;5.070000;;;;;;
43196;SPS30;28816;49.852;18.282;2023-09-18T01:17:46;5.630000;;5.640000;5.320000;;;;;;
43196;SPS30;28816;49.852;18.282;2023-09-18T01:22:48;6.490000;;6.410000;6.220000;;;;;;
43196;SPS30;28816;49.852;18.282;2023-09-18T01:27:50;5.270000;;5.240000;4.990000;;;;;;
43196;SPS30;28816;49.852;18.282;2023-09-18T01:32:52;5.660000;;5.680000;5.350000;;;;;;
43196;SPS30;28816;49.852;18.282;2023-09-18T01:37:54;5.520000;;5.460000;5.330000;;;;;;
43196;SPS30;28816;49.852;18.282;2023-09-18T01:42:58;5.560000;;5.580000;5.260000;;;;;;
43196;SPS30;28816;49.852;18.282;2023-09-18T01:48:00;5.760000;;5.740000;5.460000;;;;;;
43196;SPS30;28816;49.852;18.282;2023-09-18T01:53:04;4.790000;;4.810000;4.550000;;;;;;
43196;SPS30;28816;49.852;18.282;2023-09-18T01:58:06;5.450000;;5.480000;5.150000;;;;;;
43196;SPS30;28816;49.852;18.282;2023-09-18T02:03:08;5.350000;;5.370000;5.000000;;;;;;
43196;SPS30;28816;49.852;18.282;2023-09-18T02:08:11;5.000000;;5.000000;4.720000;;;;;;
43196;SPS30;28816;49.852;18.282;2023-09-18T02:13:14;5.480000;;5.420000;5.260000;;;;;;
43196;SPS30;28816;49.852;18.282;2023-09-18T02:18:15;5.630000;;5.640000;5.320000;;;;;;
43196;SPS30;28816;49.852;18.282;2023-09-18T02:23:17;5.590000;;5.640000;5.240000;;;;;;
43196;SPS30;28816;49.852;18.282;2023-09-18T02:28:19;5.900000;;5.940000;5.550000;;;;;;
43196;SPS30;28816;49.852;18.282;2023-09-18T02:33:21;5.610000;;5.650000;5.300000;;;;;;
43196;SPS30;28816;49.852;18.282;2023-09-18T02:38:23;5.270000;;5.290000;4.990000;;;;;;
43196;SPS30;28816;49.852;18.282;2023-09-18T02:43:26;5.300000;;5.280000;5.050000;;;;;;
43196;SPS30;28816;49.852;18.282;2023-09-18T02:48:28;5.610000;;5.600000;5.300000;;;;;;
43196;SPS30;28816;49.852;18.282;2023-09-18T02:53:30;6.080000;;5.990000;5.810000;;;;;;
43196;SPS30;28816;49.852;18.282;2023-09-18T02:58:33;6.140000;;6.120000;5.820000;;;;;;
43196;SPS30;28816;49.852;18.282;2023-09-18T03:03:36;5.550000;;5.580000;5.270000;;;;;;
43196;SPS30;28816;49.852;18.282;2023-09-18T03:08:38;5.710000;;5.630000;5.460000;;;;;;
43196;SPS30;28816;49.852;18.282;2023-09-18T03:13:41;5.710000;;5.670000;5.420000;;;;;;
43196;SPS30;28816;49.852;18.282;2023-09-18T03:18:43;6.170000;;6.160000;5.830000;;;;;;
43196;SPS30;28816;49.852;18.282;2023-09-18T03:23:45;6.260000;;6.200000;5.970000;;;;;;
43196;SPS30;28816;49.852;18.282;2023-09-18T03:28:47;6.680000;;6.720000;6.270000;;;;;;
43196;SPS30;28816;49.852;18.282;2023-09-18T03:33:49;5.530000;;5.530000;5.210000;;;;;;
43196;SPS30;28816;49.852;18.282;2023-09-18T03:38:51;7.290000;;7.320000;6.850000;;;;;;
43196;SPS30;28816;49.852;18.282;2023-09-18T03:43:53;6.630000;;6.710000;6.240000;;;;;;
43196;SPS30;28816;49.852;18.282;2023-09-18T03:48:55;6.160000;;6.180000;5.780000;;;;;;
43196;SPS30;28816;49.852;18.282;2023-09-18T03:53:57;7.340000;;7.280000;7.010000;;;;;;
43196;SPS30;28816;49.852;18.282;2023-09-18T03:58:59;6.970000;;6.960000;6.590000;;;;;;
43196;SPS30;28816;49.852;18.282;2023-09-18T04:04:01;7.060000;;7.020000;6.700000;;;;;;
43196;SPS30;28816;49.852;18.282;2023-09-18T04:09:04;7.210000;;7.180000;6.830000;;;;;;
43196;SPS30;28816;49.852;18.282;2023-09-18T04:14:05;6.940000;;6.970000;6.540000;;;;;;
43196;SPS30;28816;49.852;18.282;2023-09-18T04:19:08;8.070000;;8.070000;7.610000;;;;;;
43196;SPS30;28816;49.852;18.282;2023-09-18T04:24:10;9.330000;;9.290000;8.830000;;;;;;
43196;SPS30;28816;49.852;18.282;2023-09-18T04:29:12;7.860000;;7.880000;7.440000;;;;;;
43196;SPS30;28816;49.852;18.282;2023-09-18T04:34:14;8.720000;;8.800000;8.190000;;;;;;
43196;SPS30;28816;49.852;18.282;2023-09-18T04:39:17;7.730000;;7.680000;7.340000;;;;;;
43196;SPS30;28816;49.852;18.282;2023-09-18T04:44:19;8.470000;;8.490000;7.990000;;;;;;
43196;SPS30;28816;49.852;18.282;2023-09-18T04:49:21;9.080000;;9.090000;8.570000;;;;;;
43196;SPS30;28816;49.852;18.282;2023-09-18T04:54:23;9.260000;;9.280000;8.730000;;;;;;
43196;SPS30;28816;49.852;18.282;2023-09-18T04:59:25;16.470000;;16.320000;15.670000;;;;;;
43196;SPS30;28816;49.852;18.282;2023-09-18T05:04:27;11.390000;;11.420000;10.710000;;;;;;
43196;SPS30;28816;49.852;18.282;2023-09-18T05:09:29;10.200000;;10.210000;9.460000;;;;;;
43196;SPS30;28816;49.852;18.282;2023-09-18T05:14:32;11.050000;;10.960000;10.250000;;;;;;
43196;SPS30;28816;49.852;18.282;2023-09-18T05:19:33;9.760000;;9.710000;9.250000;;;;;;
43196;SPS30;28816;49.852;18.282;2023-09-18T05:24:36;8.590000;;8.560000;8.170000;;;;;;
43196;SPS30;28816;49.852;18.282;2023-09-18T05:29:38;9.330000;;9.400000;8.770000;;;;;;
43196;SPS30;28816;49.852;18.282;2023-09-18T05:34:40;8.420000;;8.470000;7.910000;;;;;;
43196;SPS30;28816;49.852;18.282;2023-09-18T05:39:42;11.290000;;11.190000;10.770000;;;;;;
43196;SPS30;28816;49.852;18.282;2023-09-18T05:44:44;10.920000;;10.840000;10.390000;;;;;;
43196;SPS30;28816;49.852;18.282;2023-09-18T05:49:46;12.440000;;12.460000;11.710000;;;;;;
43196;SPS30;28816;49.852;18.282;2023-09-18T05:54:49;12.330000;;12.300000;11.560000;;;;;;
43196;SPS30;28816;49.852;18.282;2023-09-18T05:59:51;15.040000;;15.030000;14.190000;;;;;;
43196;SPS30;28816;49.852;18.282;2023-09-18T06:04:53;13.890000;;13.820000;13.030000;;;;;;
43196;SPS30;28816;49.852;18.282;2023-09-18T06:09:56;12.530000;;12.530000;11.820000;;;;;;
43196;SPS30;28816;49.852;18.282;2023-09-18T06:14:58;12.170000;;12.150000;11.480000;;;;;;
43196;SPS30;28816;49.852;18.282;2023-09-18T06:20:01;12.550000;;12.580000;11.850000;;;;;;
43196;SPS30;28816;49.852;18.282;2023-09-18T06:25:03;11.780000;;11.770000;11.120000;;;;;;
43196;SPS30;28816;49.852;18.282;2023-09-18T06:30:05;12.720000;;12.710000;12.060000;;;;;;
43196;SPS30;28816;49.852;18.282;2023-09-18T06:35:08;14.200000;;14.380000;13.220000;;;;;;
43196;SPS30;28816;49.852;18.282;2023-09-18T06:40:10;12.460000;;12.550000;11.720000;;;;;;
43196;SPS30;28816;49.852;18.282;2023-09-18T06:45:12;12.460000;;12.420000;11.740000;;;;;;
43196;SPS30;28816;49.852;18.282;2023-09-18T06:50:14;12.150000;;12.150000;11.380000;;;;;;
43196;SPS30;28816;49.852;18.282;2023-09-18T06:55:17;11.120000;;11.170000;10.450000;;;;;;
43196;SPS30;28816;49.852;18.282;2023-09-18T07:00:19;13.380000;;13.270000;12.330000;;;;;;
43196;SPS30;28816;49.852;18.282;2023-09-18T07:05:22;12.090000;;12.100000;11.360000;;;;;;
43196;SPS30;28816;49.852;18.282;2023-09-18T07:10:25;15.170000;;15.240000;14.320000;;;;;;
43196;SPS30;28816;49.852;18.282;2023-09-18T07:15:26;16.740000;;16.560000;15.680000;;;;;;
43196;SPS30;28816;49.852;18.282;2023-09-18T07:20:29;16.120000;;16.090000;15.250000;;;;;;
43196;SPS30;28816;49.852;18.282;2023-09-18T07:25:31;16.740000;;16.590000;15.700000;;;;;;
43196;SPS30;28816;49.852;18.282;2023-09-18T07:30:33;14.660000;;14.580000;13.520000;;;;;;
43196;SPS30;28816;49.852;18.282;2023-09-18T07:35:35;14.530000;;14.430000;13.510000;;;;;;
43196;SPS30;28816;49.852;18.282;2023-09-18T07:40:37;14.500000;;14.430000;13.620000;;;;;;
43196;SPS30;28816;49.852;18.282;2023-09-18T07:45:40;13.410000;;13.360000;12.640000;;;;;;
43196;SPS30;28816;49.852;18.282;2023-09-18T07:50:43;12.370000;;12.310000;11.420000;;;;;;
43196;SPS30;28816;49.852;18.282;2023-09-18T07:55:45;11.580000;;11.380000;10.870000;;;;;;
43196;SPS30;28816;49.852;18.282;2023-09-18T08:00:47;10.240000;;10.230000;9.690000;;;;;;
43196;SPS30;28816;49.852;18.282;2023-09-18T08:05:49;10.530000;;10.510000;9.970000;;;;;;
43196;SPS30;28816;49.852;18.282;2023-09-18T08:10:51;10.690000;;10.720000;10.040000;;;;;;
43196;SPS30;28816;49.852;18.282;2023-09-18T08:15:54;8.500000;;8.380000;8.120000;;;;;;
43196;SPS30;28816;49.852;18.282;2023-09-18T08:20:56;7.780000;;7.770000;7.370000;;;;;;
43196;SPS30;28816;49.852;18.282;2023-09-18T08:25:57;8.360000;;8.300000;7.970000;;;;;;
43196;SPS30;28816;49.852;18.282;2023-09-18T08:30:59;7.930000;;7.930000;7.530000;;;;;;
43196;SPS30;28816;49.852;18.282;2023-09-18T08:36:02;8.400000;;8.380000;7.980000;;;;;;
43196;SPS30;28816;49.852;18.282;2023-09-18T08:41:04;7.660000;;7.690000;7.240000;;;;;;
43196;SPS30;28816;49.852;18.282;2023-09-18T08:46:06;7.250000;;7.270000;6.850000;;;;;;
43196;SPS30;28816;49.852;18.282;2023-09-18T08:51:09;8.620000;;8.650000;8.080000;;;;;;
43196;SPS30;28816;49.852;18.282;2023-09-18T08:56:13;7.160000;;7.140000;6.770000;;;;;;
43196;SPS30;28816;49.852;18.282;2023-09-18T09:01:17;6.490000;;6.500000;6.160000;;;;;;
43196;SPS30;28816;49.852;18.282;2023-09-18T09:06:19;8.080000;;8.120000;7.650000;;;;;;
43196;SPS30;28816;49.852;18.282;2023-09-18T09:11:22;7.270000;;7.300000;6.840000;;;;;;
43196;SPS30;28816;49.852;18.282;2023-09-18T09:16:24;7.730000;;7.630000;7.400000;;;;;;
43196;SPS30;28816;49.852;18.282;2023-09-18T09:21:26;6.830000;;6.820000;6.460000;;;;;;
43196;SPS30;28816;49.852;18.282;2023-09-18T09:26:37;7.210000;;7.150000;6.830000;;;;;;
43196;SPS30;28816;49.852;18.282;2023-09-18T09:31:40;7.300000;;7.320000;6.890000;;;;;;
43196;SPS30;28816;49.852;18.282;2023-09-18T09:36:43;7.520000;;7.530000;7.070000;;;;;;
43196;SPS30;28816;49.852;18.282;2023-09-18T09:41:54;6.390000;;6.380000;6.060000;;;;;;
43196;SPS30;28816;49.852;18.282;2023-09-18T09:46:59;6.560000;;6.480000;6.250000;;;;;;
43196;SPS30;28816;49.852;18.282;2023-09-18T09:52:05;6.690000;;6.670000;6.330000;;;;;;
43196;SPS30;28816;49.852;18.282;2023-09-18T09:57:17;5.740000;;5.830000;5.350000;;;;;;
43196;SPS30;28816;49.852;18.282;2023-09-18T10:02:19;6.660000;;6.650000;6.260000;;;;;;
43196;SPS30;28816;49.852;18.282;2023-09-18T10:07:22;6.440000;;6.440000;6.120000;;;;;;
43196;SPS30;28816;49.852;18.282;2023-09-18T10:12:24;5.990000;;6.040000;5.610000;;;;;;
43196;SPS30;28816;49.852;18.282;2023-09-18T10:17:27;6.080000;;6.110000;5.700000;;;;;;
43196;SPS30;28816;49.852;18.282;2023-09-18T10:22:30;6.040000;;5.990000;5.730000;;;;;;
43196;SPS30;28816;49.852;18.282;2023-09-18T10:27:37;6.880000;;6.920000;6.480000;;;;;;
43196;SPS30;28816;49.852;18.282;2023-09-18T10:32:40;6.140000;;6.120000;5.810000;;;;;;
43196;SPS30;28816;49.852;18.282;2023-09-18T10:37:43;5.690000;;5.770000;5.330000;;;;;;
43196;SPS30;28816;49.852;18.282;2023-09-18T10:42:47;5.780000;;5.790000;5.480000;;;;;;
43196;SPS30;28816;49.852;18.282;2023-09-18T10:47:51;6.730000;;6.710000;6.360000;;;;;;
43196;SPS30;28816;49.852;18.282;2023-09-18T10:52:54;6.170000;;6.110000;5.900000;;;;;;
43196;SPS30;28816;49.852;18.282;2023-09-18T10:57:57;6.120000;;6.160000;5.760000;;;;;;
43196;SPS30;28816;49.852;18.282;2023-09-18T11:03:00;6.590000;;6.560000;6.250000;;;;;;
43196;SPS30;28816;49.852;18.282;2023-09-18T11:08:10;6.070000;;6.030000;5.750000;;;;;;
43196;SPS30;28816;49.852;18.282;2023-09-18T11:13:28;5.150000;;5.170000;4.880000;;;;;;
43196;SPS30;28816;49.852;18.282;2023-09-18T11:18:34;5.640000;;5.710000;5.280000;;;;;;
43196;SPS30;28816;49.852;18.282;2023-09-18T11:23:36;5.510000;;5.510000;5.180000;;;;;;
43196;SPS30;28816;49.852;18.282;2023-09-18T11:28:39;5.740000;;5.790000;5.390000;;;;;;
43196;SPS30;28816;49.852;18.282;2023-09-18T11:33:41;5.910000;;5.910000;5.530000;;;;;;
43196;SPS30;28816;49.852;18.282;2023-09-18T11:38:44;5.210000;;5.230000;4.900000;;;;;;
43196;SPS30;28816;49.852;18.282;2023-09-18T11:43:53;5.820000;;5.800000;5.520000;;;;;;
43196;SPS30;28816;49.852;18.282;2023-09-18T11:50:01;5.560000;;5.600000;5.240000;;;;;;
43196;SPS30;28816;49.852;18.282;2023-09-18T11:55:04;5.730000;;5.690000;5.460000;;;;;;
43196;SPS30;28816;49.852;18.282;2023-09-18T12:00:06;5.440000;;5.440000;5.150000;;;;;;
43196;SPS30;28816;49.852;18.282;2023-09-18T12:05:18;5.570000;;5.520000;5.320000;;;;;;
43196;SPS30;28816;49.852;18.282;2023-09-18T12:10:20;5.040000;;4.960000;4.830000;;;;;;
43196;SPS30;28816;49.852;18.282;2023-09-18T12:15:23;5.200000;;5.160000;4.930000;;;;;;
43196;SPS30;28816;49.852;18.282;2023-09-18T12:20:25;4.970000;;5.050000;4.650000;;;;;;
43196;SPS30;28816;49.852;18.282;2023-09-18T12:25:27;5.610000;;5.620000;5.280000;;;;;;
43196;SPS30;28816;49.852;18.282;2023-09-18T12:30:30;5.930000;;5.940000;5.590000;;;;;;
43196;SPS30;28816;49.852;18.282;2023-09-18T12:35:33;5.630000;;5.640000;5.290000;;;;;;
43196;SPS30;28816;49.852;18.282;2023-09-18T12:40:35;5.170000;;5.210000;4.880000;;;;;;
43196;SPS30;28816;49.852;18.282;2023-09-18T12:45:37;6.000000;;5.920000;5.720000;;;;;;
43196;SPS30;28816;49.852;18.282;2023-09-18T12:50:40;5.450000;;5.390000;5.200000;;;;;;
43196;SPS30;28816;49.852;18.282;2023-09-18T12:55:42;5.730000;;5.720000;5.420000;;;;;;
43196;SPS30;28816;49.852;18.282;2023-09-18T13:00:44;5.420000;;5.440000;5.080000;;;;;;
43196;SPS30;28816;49.852;18.282;2023-09-18T13:05:47;5.330000;;5.280000;5.100000;;;;;;
43196;SPS30;28816;49.852;18.282;2023-09-18T13:10:51;5.500000;;5.530000;5.170000;;;;;;
43196;SPS30;28816;49.852;18.282;2023-09-18T13:15:53;5.550000;;5.510000;5.240000;;;;;;
43196;SPS30;28816;49.852;18.282;2023-09-18T13:20:57;5.600000;;5.600000;5.280000;;;;;;
43196;SPS30;28816;49.852;18.282;2023-09-18T13:25:59;5.740000;;5.760000;5.430000;;;;;;
43196;SPS30;28816;49.852;18.282;2023-09-18T13:31:01;6.170000;;6.140000;5.830000;;;;;;
43196;SPS30;28816;49.852;18.282;2023-09-18T13:36:04;4.960000;;4.950000;4.720000;;;;;;
43196;SPS30;28816;49.852;18.282;2023-09-18T13:41:06;4.930000;;4.920000;4.640000;;;;;;
43196;SPS30;28816;49.852;18.282;2023-09-18T13:46:08;5.560000;;5.470000;5.330000;;;;;;
43196;SPS30;28816;49.852;18.282;2023-09-18T13:51:10;5.240000;;5.280000;4.930000;;;;;;
43196;SPS30;28816;49.852;18.282;2023-09-18T13:56:12;5.370000;;5.340000;5.090000;;;;;;
43196;SPS30;28816;49.852;18.282;2023-09-18T14:01:15;5.380000;;5.420000;5.050000;;;;;;
43196;SPS30;28816;49.852;18.282;2023-09-18T14:06:17;5.080000;;5.130000;4.800000;;;;;;
43196;SPS30;28816;49.852;18.282;2023-09-18T14:11:19;5.800000;;5.900000;5.420000;;;;;;
43196;SPS30;28816;49.852;18.282;2023-09-18T14:16:21;5.320000;;5.340000;5.030000;;;;;;
43196;SPS30;28816;49.852;18.282;2023-09-18T14:21:24;5.640000;;5.640000;5.330000;;;;;;
43196;SPS30;28816;49.852;18.282;2023-09-18T14:26:25;5.410000;;5.480000;5.020000;;;;;;
43196;SPS30;28816;49.852;18.282;2023-09-18T14:31:28;5.370000;;5.430000;5.040000;;;;;;
43196;SPS30;28816;49.852;18.282;2023-09-18T14:36:31;6.140000;;6.100000;5.850000;;;;;;
43196;SPS30;28816;49.852;18.282;2023-09-18T14:41:33;5.460000;;5.430000;5.170000;;;;;;
43196;SPS30;28816;49.852;18.282;2023-09-18T14:46:36;6.170000;;6.180000;5.800000;;;;;;
43196;SPS30;28816;49.852;18.282;2023-09-18T14:51:38;6.510000;;6.510000;6.180000;;;;;;
43196;SPS30;28816;49.852;18.282;2023-09-18T14:56:40;5.870000;;5.810000;5.610000;;;;;;
43196;SPS30;28816;49.852;18.282;2023-09-18T15:01:42;6.120000;;6.030000;5.870000;;;;;;
43196;SPS30;28816;49.852;18.282;2023-09-18T15:06:45;5.300000;;5.290000;5.000000;;;;;;
43196;SPS30;28816;49.852;18.282;2023-09-18T15:11:47;5.900000;;5.900000;5.570000;;;;;;
43196;SPS30;28816;49.852;18.282;2023-09-18T15:16:49;5.810000;;5.870000;5.480000;;;;;;
43196;SPS30;28816;49.852;18.282;2023-09-18T15:21:52;6.500000;;6.550000;6.060000;;;;;;
43196;SPS30;28816;49.852;18.282;2023-09-18T15:26:54;5.710000;;5.730000;5.410000;;;;;;
43196;SPS30;28816;49.852;18.282;2023-09-18T15:31:56;6.030000;;6.040000;5.680000;;;;;;
43196;SPS30;28816;49.852;18.282;2023-09-18T15:36:59;6.400000;;6.470000;6.000000;;;;;;
43196;SPS30;28816;49.852;18.282;2023-09-18T15:42:01;6.170000;;6.210000;5.780000;;;;;;
43196;SPS30;28816;49.852;18.282;2023-09-18T15:47:03;6.320000;;6.310000;5.980000;;;;;;
43196;SPS30;28816;49.852;18.282;2023-09-18T15:52:06;6.850000;;7.000000;6.450000;;;;;;
43196;SPS30;28816;49.852;18.282;2023-09-18T15:57:08;6.540000;;6.500000;6.210000;;;;;;
43196;SPS30;28816;49.852;18.282;2023-09-18T16:02:10;7.020000;;7.000000;6.630000;;;;;;
43196;SPS30;28816;49.852;18.282;2023-09-18T16:07:12;6.770000;;6.870000;6.400000;;;;;;
43196;SPS30;28816;49.852;18.282;2023-09-18T16:12:14;7.150000;;7.090000;6.810000;;;;;;
43196;SPS30;28816;49.852;18.282;2023-09-18T16:17:16;7.180000;;7.150000;6.800000;;;;;;
43196;SPS30;28816;49.852;18.282;2023-09-18T16:22:19;6.930000;;6.940000;6.550000;;;;;;
43196;SPS30;28816;49.852;18.282;2023-09-18T16:27:21;7.470000;;7.480000;7.040000;;;;;;
43196;SPS30;28816;49.852;18.282;2023-09-18T16:32:23;6.670000;;6.720000;6.250000;;;;;;
43196;SPS30;28816;49.852;18.282;2023-09-18T16:37:28;6.360000;;6.370000;5.980000;;;;;;
43196;SPS30;28816;49.852;18.282;2023-09-18T16:42:30;7.120000;;7.080000;6.760000;;;;;;
43196;SPS30;28816;49.852;18.282;2023-09-18T16:47:32;7.320000;;7.370000;6.920000;;;;;;
43196;SPS30;28816;49.852;18.282;2023-09-18T16:52:34;6.590000;;6.620000;6.230000;;;;;;
43196;SPS30;28816;49.852;18.282;2023-09-18T16:57:36;6.610000;;6.610000;6.260000;;;;;;
43196;SPS30;28816;49.852;18.282;2023-09-18T17:02:39;6.990000;;6.960000;6.640000;;;;;;
43196;SPS30;28816;49.852;18.282;2023-09-18T17:07:42;7.050000;;7.030000;6.680000;;;;;;
43196;SPS30;28816;49.852;18.282;2023-09-18T17:12:44;7.390000;;7.370000;7.040000;;;;;;
43196;SPS30;28816;49.852;18.282;2023-09-18T17:17:46;7.500000;;7.510000;7.070000;;;;;;
43196;SPS30;28816;49.852;18.282;2023-09-18T17:22:49;7.110000;;7.090000;6.750000;;;;;;
43196;SPS30;28816;49.852;18.282;2023-09-18T17:27:51;7.660000;;7.730000;7.210000;;;;;;
43196;SPS30;28816;49.852;18.282;2023-09-18T17:32:53;7.880000;;7.920000;7.420000;;;;;;
43196;SPS30;28816;49.852;18.282;2023-09-18T17:37:55;8.450000;;8.420000;7.980000;;;;;;
43196;SPS30;28816;49.852;18.282;2023-09-18T17:42:58;7.500000;;7.580000;6.990000;;;;;;
43196;SPS30;28816;49.852;18.282;2023-09-18T17:48:00;7.100000;;7.050000;6.730000;;;;;;
43196;SPS30;28816;49.852;18.282;2023-09-18T17:53:03;7.550000;;7.540000;7.160000;;;;;;
43196;SPS30;28816;49.852;18.282;2023-09-18T17:58:06;8.770000;;8.890000;8.200000;;;;;;
43196;SPS30;28816;49.852;18.282;2023-09-18T18:03:08;8.330000;;8.330000;7.920000;;;;;;
43196;SPS30;28816;49.852;18.282;2023-09-18T18:08:10;8.960000;;8.840000;8.540000;;;;;;
43196;SPS30;28816;49.852;18.282;2023-09-18T18:13:13;8.540000;;8.560000;8.090000;;;;;;
43196;SPS30;28816;49.852;18.282;2023-09-18T18:18:15;8.830000;;8.940000;8.250000;;;;;;
43196;SPS30;28816;49.852;18.282;2023-09-18T18:23:18;9.040000;;9.030000;8.550000;;;;;;
43196;SPS30;28816;49.852;18.282;2023-09-18T18:28:20;9.190000;;9.250000;8.520000;;;;;;
43196;SPS30;28816;49.852;18.282;2023-09-18T18:33:22;9.020000;;9.000000;8.550000;;;;;;
43196;SPS30;28816;49.852;18.282;2023-09-18T18:38:24;9.860000;;9.820000;9.370000;;;;;;
43196;SPS30;28816;49.852;18.282;2023-09-18T18:43:27;9.260000;;9.300000;8.700000;;;;;;
43196;SPS30;28816;49.852;18.282;2023-09-18T18:48:29;8.850000;;8.880000;8.170000;;;;;;
43196;SPS30;28816;49.852;18.282;2023-09-18T18:53:32;7.980000;;7.910000;7.560000;;;;;;
43196;SPS30;28816;49.852;18.282;2023-09-18T18:58:34;9.050000;;9.080000;8.540000;;;;;;
43196;SPS30;28816;49.852;18.282;2023-09-18T19:03:36;8.350000;;8.310000;7.950000;;;;;;
43196;SPS30;28816;49.852;18.282;2023-09-18T19:08:39;9.060000;;9.070000;8.490000;;;;;;
43196;SPS30;28816;49.852;18.282;2023-09-18T19:13:42;8.430000;;8.330000;7.920000;;;;;;
43196;SPS30;28816;49.852;18.282;2023-09-18T19:18:44;8.480000;;8.600000;7.920000;;;;;;
43196;SPS30;28816;49.852;18.282;2023-09-18T19:23:46;9.170000;;9.100000;8.650000;;;;;;
43196;SPS30;28816;49.852;18.282;2023-09-18T19:28:48;8.870000;;8.780000;8.500000;;;;;;
43196;SPS30;28816;49.852;18.282;2023-09-18T19:33:51;8.800000;;8.800000;8.320000;;;;;;
43196;SPS30;28816;49.852;18.282;2023-09-18T19:38:54;7.770000;;7.780000;7.320000;;;;;;
43196;SPS30;28816;49.852;18.282;2023-09-18T19:43:56;7.730000;;7.710000;7.210000;;;;;;
43196;SPS30;28816;49.852;18.282;2023-09-18T19:48:58;8.780000;;8.700000;8.100000;;;;;;
43196;SPS30;28816;49.852;18.282;2023-09-18T19:54:00;7.780000;;7.830000;7.280000;;;;;;
43196;SPS30;28816;49.852;18.282;2023-09-18T19:59:02;7.650000;;7.630000;7.250000;;;;;;
43196;SPS30;28816;49.852;18.282;2023-09-18T20:04:04;6.910000;;6.880000;6.590000;;;;;;
43196;SPS30;28816;49.852;18.282;2023-09-18T20:09:07;8.060000;;8.060000;7.650000;;;;;;
43196;SPS30;28816;49.852;18.282;2023-09-18T20:14:09;8.420000;;8.440000;7.950000;;;;;;
43196;SPS30;28816;49.852;18.282;2023-09-18T20:19:12;7.990000;;8.010000;7.470000;;;;;;
43196;SPS30;28816;49.852;18.282;2023-09-18T20:24:13;6.790000;;6.770000;6.410000;;;;;;
43196;SPS30;28816;49.852;18.282;2023-09-18T20:29:16;7.170000;;7.180000;6.750000;;;;;;
43196;SPS30;28816;49.852;18.282;2023-09-18T20:34:18;7.410000;;7.390000;7.000000;;;;;;
43196;SPS30;28816;49.852;18.282;2023-09-18T20:39:20;7.210000;;7.270000;6.750000;;;;;;
43196;SPS30;28816;49.852;18.282;2023-09-18T20:44:22;7.400000;;7.380000;7.030000;;;;;;
43196;SPS30;28816;49.852;18.282;2023-09-18T20:49:24;7.860000;;7.810000;7.470000;;;;;;
43196;SPS30;28816;49.852;18.282;2023-09-18T20:54:27;7.290000;;7.270000;6.900000;;;;;;
43196;SPS30;28816;49.852;18.282;2023-09-18T20:59:29;6.580000;;6.480000;6.250000;;;;;;
43196;SPS30;28816;49.852;18.282;2023-09-18T21:04:32;7.180000;;7.190000;6.770000;;;;;;
43196;SPS30;28816;49.852;18.282;2023-09-18T21:09:34;7.270000;;7.220000;6.900000;;;;;;
43196;SPS30;28816;49.852;18.282;2023-09-18T21:14:37;8.390000;;8.420000;7.910000;;;;;;
43196;SPS30;28816;49.852;18.282;2023-09-18T21:19:39;7.620000;;7.530000;7.290000;;;;;;
43196;SPS30;28816;49.852;18.282;2023-09-18T21:24:43;7.860000;;7.890000;7.390000;;;;;;
43196;SPS30;28816;49.852;18.282;2023-09-18T21:29:45;7.870000;;7.880000;7.440000;;;;;;
43196;SPS30;28816;49.852;18.282;2023-09-18T21:34:47;9.170000;;9.150000;8.680000;;;;;;
43196;SPS30;28816;49.852;18.282;2023-09-18T21:39:49;8.340000;;8.310000;7.900000;;;;;;
43196;SPS30;28816;49.852;18.282;2023-09-18T21:44:52;7.730000;;7.750000;7.350000;;;;;;
43196;SPS30;28816;49.852;18.282;2023-09-18T21:49:54;8.430000;;8.410000;7.970000;;;;;;
43196;SPS30;28816;49.852;18.282;2023-09-18T21:54:56;8.430000;;8.500000;7.880000;;;;;;
43196;SPS30;28816;49.852;18.282;2023-09-18T21:59:58;8.560000;;8.650000;8.040000;;;;;;
43196;SPS30;28816;49.852;18.282;2023-09-18T22:04:59;8.030000;;8.030000;7.620000;;;;;;
43196;SPS30;28816;49.852;18.282;2023-09-18T22:10:02;9.270000;;9.250000;8.790000;;;;;;
43196;SPS30;28816;49.852;18.282;2023-09-18T22:15:05;9.150000;;9.150000;8.620000;;;;;;
43196;SPS30;28816;49.852;18.282;2023-09-18T22:20:07;8.260000;;8.220000;7.850000;;;;;;
43196;SPS30;28816;49.852;18.282;2023-09-18T22:25:10;10.170000;;10.090000;9.710000;;;;;;
43196;SPS30;28816;49.852;18.282;2023-09-18T22:30:12;12.470000;;12.480000;11.820000;;;;;;
43196;SPS30;28816;49.852;18.282;2023-09-18T22:35:14;13.030000;;12.970000;12.160000;;;;;;
43196;SPS30;28816;49.852;18.282;2023-09-18T22:57:39;12.150000;;12.160000;11.470000;;;;;;
43196;SPS30;28816;49.852;18.282;2023-09-18T23:02:42;14.320000;;14.260000;13.360000;;;;;;
43196;SPS30;28816;49.852;18.282;2023-09-18T23:07:44;13.880000;;13.810000;13.060000;;;;;;
43196;SPS30;28816;49.852;18.282;2023-09-18T23:12:49;12.840000;;12.930000;12.030000;;;;;;
43196;SPS30;28816;49.852;18.282;2023-09-18T23:17:51;13.290000;;13.300000;12.460000;;;;;;
43196;SPS30;28816;49.852;18.282;2023-09-18T23:22:54;14.380000;;14.270000;13.660000;;;;;;
43196;SPS30;28816;49.852;18.282;2023-09-18T23:27:56;15.780000;;15.790000;14.830000;;;;;;